Time;durP1;ratioP1;P1;durP2;ratioP2;P2;SDS_P1;SDS_P2;PMS_P1;PMS_P2;Temp;Humidity;BMP_temperature;BMP_pressure;BME280_temperature;BME280_humidity;BME280_pressure;Samples;Min_cycle;Max_cycle;Signal;HPM_P1;HPM_P2
2022/05/09 00:00:35;;;;;;;;;;;;;;;18.00;54.88;100165.41;5379615;26;34239;-93
2022/05/09 00:03:04;;;;;;;;;;;;;;;17.77;55.66;100155.69;5380987;26;34140;-92
2022/05/09 00:05:32;;;;;;;;;;;;;;;17.85;55.24;100161.56;5379378;26;33369;-92
2022/05/09 00:08:02;;;;;;;;;;;;;;;17.68;55.87;100159.50;5381024;26;35117;-92
2022/05/09 00:10:31;;;;;;;;;;;;;;;17.72;55.68;100161.09;5387095;26;34355;-91
2022/05/09 00:12:59;;;;;;;;;;;;;;;17.47;56.52;100166.34;5380526;26;34462;-92
2022/05/09 00:15:28;;;;;;;;;;;;;;;17.43;56.48;100160.34;5381922;26;32830;-92
2022/05/09 00:17:57;;;;;;;;;;;;;;;17.63;55.86;100159.66;5381203;26;34767;-92
2022/05/09 00:20:25;;;;;;;;;;;;;;;17.47;56.41;100159.34;5381351;26;33539;-92
2022/05/09 00:22:54;;;;;;;;;;;;;;;17.66;55.95;100153.44;5386970;26;34860;-92
2022/05/09 00:25:31;;;;;;;;;;;;;;;17.38;56.71;100162.28;5379961;26;32783;-92
2022/05/09 00:27:59;;;;;;;;;;;;;;;17.46;56.62;100162.84;5380775;26;34926;-92
2022/05/09 00:30:28;;;;;;;;;;;;;;;17.50;56.48;100161.00;5379992;26;34877;-92
2022/05/09 00:32:56;;;;;;;;;;;;;;;17.59;56.39;100162.44;5359809;26;33010;-92
2022/05/09 00:35:25;;;;;;;;;;;;;;;17.54;56.64;100166.97;5379683;26;32861;-92
2022/05/09 00:37:54;;;;;;;;;;;;;;;17.59;56.72;100162.44;5385408;26;34880;-92
2022/05/09 00:40:22;;;;;;;;;;;;;;;17.45;57.12;100161.16;5381113;26;33819;-92
2022/05/09 00:42:52;;;;;;;;;;;;;;;17.46;57.41;100165.47;5380240;26;34466;-92
2022/05/09 00:45:22;;;;;;;;;;;;;;;17.34;57.91;100171.12;5380490;26;33398;-92
2022/05/09 00:47:50;;;;;;;;;;;;;;;17.31;57.93;100167.78;5381148;26;34594;-92
2022/05/09 00:50:20;;;;;;;;;;;;;;;17.19;58.38;100171.66;5387272;26;33927;-92
2022/05/09 00:52:49;;;;;;;;;;;;;;;17.25;58.09;100167.06;5380733;26;33801;-91
2022/05/09 00:55:17;;;;;;;;;;;;;;;17.16;58.55;100166.53;5380324;26;32922;-92
2022/05/09 00:57:50;;;;;;;;;;;;;;;17.25;58.24;100169.69;5380488;26;34587;-92
2022/05/09 01:00:23;;;;;;;;;;;;;;;17.08;58.83;100166.75;5379994;26;35999;-92
2022/05/09 01:02:56;;;;;;;;;;;;;;;17.16;58.59;100166.53;5386452;26;33980;-91
2022/05/09 01:05:25;;;;;;;;;;;;;;;17.00;58.97;100174.00;5385371;26;33385;-92
2022/05/09 01:07:54;;;;;;;;;;;;;;;17.05;58.86;100172.94;5380707;26;33904;-91
2022/05/09 01:10:23;;;;;;;;;;;;;;;17.03;59.16;100174.78;5380283;26;34575;-91
2022/05/09 01:12:54;;;;;;;;;;;;;;;17.13;59.02;100174.47;5380901;26;34207;-92
2022/05/09 01:15:25;;;;;;;;;;;;;;;17.14;59.08;100173.56;5379142;26;34152;-92
2022/05/09 01:17:54;;;;;;;;;;;;;;;16.95;59.54;100175.91;5386665;26;33793;-92
2022/05/09 01:20:23;;;;;;;;;;;;;;;16.94;59.63;100172.44;5378166;26;33480;-92
2022/05/09 01:22:56;;;;;;;;;;;;;;;17.02;59.35;100177.44;5380501;26;34938;-92
2022/05/09 01:25:25;;;;;;;;;;;;;;;16.99;59.59;100178.41;5379947;26;33236;-92
2022/05/09 01:27:54;;;;;;;;;;;;;;;17.00;59.35;100181.88;5379302;26;34634;-92
2022/05/09 01:30:24;;;;;;;;;;;;;;;16.94;59.57;100177.69;5384668;26;33536;-92
2022/05/09 01:32:54;;;;;;;;;;;;;;;17.09;59.27;100186.81;5360327;26;34017;-92
2022/05/09 01:35:23;;;;;;;;;;;;;;;16.98;59.36;100186.28;5380073;26;33787;-92
2022/05/09 01:37:56;;;;;;;;;;;;;;;17.01;59.37;100188.81;5380929;26;34212;-92
2022/05/09 01:40:24;;;;;;;;;;;;;;;17.01;59.52;100188.81;5379967;26;34194;-92
2022/05/09 01:42:53;;;;;;;;;;;;;;;17.09;58.99;100189.44;5380590;26;33934;-92
2022/05/09 01:45:21;;;;;;;;;;;;;;;17.11;59.04;100184.16;5385008;26;34224;-92
2022/05/09 01:50:36;;;;;;;;;;;;;;;17.00;59.42;100187.13;5380502;26;34111;-92
2022/05/09 01:53:05;;;;;;;;;;;;;;;16.69;60.27;100177.53;5380697;26;33739;-92
2022/05/09 01:55:34;;;;;;;;;;;;;;;16.68;60.44;100181.09;5379995;26;32989;-91
2022/05/09 01:58:02;;;;;;;;;;;;;;;16.93;59.72;100180.34;5387978;26;34876;-92
2022/05/09 02:00:32;;;;;;;;;;;;;;;17.01;59.51;100186.19;5379408;26;34993;-92
2022/05/09 02:03:01;;;;;;;;;;;;;;;17.13;59.23;100177.09;5377357;26;34688;-92
2022/05/09 02:05:30;;;;;;;;;;;;;;;17.03;59.30;100177.41;5379050;26;33156;-92
2022/05/09 02:07:59;;;;;;;;;;;;;;;17.03;59.39;100176.53;5379756;26;34242;-92
2022/05/09 02:10:29;;;;;;;;;;;;;;;17.02;59.49;100180.06;5381037;26;35008;-92
2022/05/09 02:12:57;;;;;;;;;;;;;;;16.99;59.41;100181.03;5387015;26;35556;-92
2022/05/09 02:15:31;;;;;;;;;;;;;;;17.12;58.88;100184.09;5381001;26;33461;-91
2022/05/09 02:17:59;;;;;;;;;;;;;;;16.93;59.39;100181.19;5380677;26;34588;-92
2022/05/09 02:20:28;;;;;;;;;;;;;;;16.92;59.33;100182.13;5381272;26;34173;-91
2022/05/09 02:22:56;;;;;;;;;;;;;;;16.89;59.06;100184.84;5379762;26;34176;-92
2022/05/09 02:25:29;;;;;;;;;;;;;;;16.84;59.08;100186.72;5386779;26;33480;-91
2022/05/09 02:28:00;;;;;;;;;;;;;;;16.75;59.44;100185.22;5380384;26;35013;-92
2022/05/09 02:30:29;;;;;;;;;;;;;;;16.78;59.26;100186.91;5379999;26;33688;-92
2022/05/09 02:32:58;;;;;;;;;;;;;;;16.64;59.51;100182.06;5378406;26;34710;-92
2022/05/09 02:35:26;;;;;;;;;;;;;;;16.31;60.39;100182.19;5377768;26;33744;-92
2022/05/09 02:37:55;;;;;;;;;;;;;;;16.49;60.36;100191.25;5386175;26;35281;-92
2022/05/09 02:40:24;;;;;;;;;;;;;;;16.54;60.33;100188.50;5379698;26;33617;-92
2022/05/09 02:42:53;;;;;;;;;;;;;;;16.56;60.35;100195.41;5378563;26;33698;-92
2022/05/09 02:45:23;;;;;;;;;;;;;;;16.81;59.58;100202.53;5381139;26;34134;-92
2022/05/09 02:47:52;;;;;;;;;;;;;;;16.58;60.58;100198.84;5379745;26;33888;-92
2022/05/09 02:50:21;;;;;;;;;;;;;;;16.60;60.46;100198.81;5379347;26;35346;-92
2022/05/09 02:52:52;;;;;;;;;;;;;;;16.57;60.66;100197.09;5386736;26;34261;-91
2022/05/09 02:55:21;;;;;;;;;;;;;;;16.70;60.20;100196.75;5379750;26;33199;-92
2022/05/09 02:57:50;;;;;;;;;;;;;;;16.63;60.46;100198.69;5378865;26;33995;-91
2022/05/09 03:00:19;;;;;;;;;;;;;;;16.60;60.65;100201.41;5380120;26;33977;-91
2022/05/09 03:05:38;;;;;;;;;;;;;;;16.66;60.67;100200.38;5383927;26;33286;-92
2022/05/09 03:08:06;;;;;;;;;;;;;;;16.61;60.75;100201.34;5384382;26;34918;-92
2022/05/09 03:10:35;;;;;;;;;;;;;;;16.78;59.93;100197.38;5378229;26;33734;-92
2022/05/09 03:13:04;;;;;;;;;;;;;;;16.87;59.64;100202.38;5380824;26;34121;-92
2022/05/09 03:15:35;;;;;;;;;;;;;;;16.87;59.64;100199.75;5379859;26;33038;-92
2022/05/09 03:18:06;;;;;;;;;;;;;;;16.82;59.57;100199.87;5380474;26;34936;-92
2022/05/09 03:20:34;;;;;;;;;;;;;;;16.79;59.38;100201.72;5387067;26;34933;-92
2022/05/09 03:23:04;;;;;;;;;;;;;;;16.97;58.97;100201.19;5381381;26;34494;-91
2022/05/09 03:25:33;;;;;;;;;;;;;;;17.02;58.76;100201.88;5381074;26;32885;-91
2022/05/09 03:28:02;;;;;;;;;;;;;;;17.03;58.82;100203.63;5381104;26;34621;-92
2022/05/09 03:30:31;;;;;;;;;;;;;;;17.10;58.76;100204.25;5380952;26;34230;-92
2022/05/09 03:32:59;;;;;;;;;;;;;;;17.11;58.62;100213.84;5387152;26;34137;-92
2022/05/09 03:35:29;;;;;;;;;;;;;;;17.16;58.55;100209.31;5380388;26;33490;-92
2022/05/09 03:37:57;;;;;;;;;;;;;;;17.23;58.18;100215.22;5379249;26;34234;-92
2022/05/09 03:40:26;;;;;;;;;;;;;;;17.18;58.41;100217.13;5380315;26;33964;-92
2022/05/09 03:42:59;;;;;;;;;;;;;;;17.35;57.99;100213.94;5379753;26;33033;-92
2022/05/09 03:45:28;;;;;;;;;;;;;;;17.33;57.91;100216.63;5387412;26;33807;-92
2022/05/09 03:47:58;;;;;;;;;;;;;;;17.38;58.03;100217.34;5390799;26;35033;-92
2022/05/09 03:50:29;;;;;;;;;;;;;;;17.44;57.97;100221.53;5381858;26;34197;-92
2022/05/09 03:52:57;;;;;;;;;;;;;;;17.62;56.86;100222.69;5381283;26;35939;-93
2022/05/09 03:55:25;;;;;;;;;;;;;;;17.77;56.15;100221.31;5381338;26;34040;-91
2022/05/09 03:57:55;;;;;;;;;;;;;;;17.85;55.82;100227.16;5379884;26;33770;-92
2022/05/09 04:00:24;;;;;;;;;;;;;;;17.78;56.54;100226.47;5387476;26;34583;-92
2022/05/09 04:02:52;;;;;;;;;;;;;;;17.78;57.16;100225.62;5380433;26;34154;-92
2022/05/09 04:05:21;;;;;;;;;;;;;;;17.76;57.46;100227.44;5380520;26;32917;-92
2022/05/09 04:07:51;;;;;;;;;;;;;;;17.71;57.58;100227.63;5381466;26;34742;-92
2022/05/09 04:10:21;;;;;;;;;;;;;;;17.90;56.86;100234.00;5381246;26;33221;-92
2022/05/09 04:12:49;;;;;;;;;;;;;;;18.05;55.54;100237.84;5387231;26;34781;-92
2022/05/09 04:18:05;;;;;;;;;;;;;;;18.24;54.74;100230.19;5381376;26;33928;-92
2022/05/09 04:20:34;;;;;;;;;;;;;;;18.22;54.52;100229.38;5381404;26;34584;-92
2022/05/09 04:23:03;;;;;;;;;;;;;;;18.23;54.68;100225.81;5380979;26;34230;-92
2022/05/09 04:25:32;;;;;;;;;;;;;;;18.35;54.57;100235.03;5380163;26;32821;-92
2022/05/09 04:28:02;;;;;;;;;;;;;;;18.34;54.55;100236.81;5386562;26;33987;-93
2022/05/09 04:30:31;;;;;;;;;;;;;;;18.41;54.65;100236.56;5380046;26;34256;-92
2022/05/09 04:33:01;;;;;;;;;;;;;;;18.41;55.12;100236.56;5379646;26;34821;-92
2022/05/09 04:35:30;;;;;;;;;;;;;;;18.47;55.16;100242.44;5379091;26;33275;-92
2022/05/09 04:37:59;;;;;;;;;;;;;;;18.54;55.05;100243.09;5378455;26;34137;-92
2022/05/09 04:40:29;;;;;;;;;;;;;;;18.59;54.83;100245.56;5386238;26;35030;-92
2022/05/09 04:42:58;;;;;;;;;;;;;;;18.63;54.81;100244.50;5379612;26;33003;-92
2022/05/09 04:45:27;;;;;;;;;;;;;;;18.69;54.61;100249.53;5381395;26;34198;-92
2022/05/09 04:47:56;;;;;;;;;;;;;;;18.85;53.85;100249.84;5360737;26;34176;-92
2022/05/09 04:50:24;;;;;;;;;;;;;;;18.90;53.02;100251.38;5381417;26;34162;-92
2022/05/09 04:52:53;;;;;;;;;;;;;;;18.74;53.69;100250.22;5387592;26;34155;-92
2022/05/09 04:55:26;;;;;;;;;;;;;;;18.81;53.91;100251.72;5351642;26;868062;-92
2022/05/09 04:57:56;;;;;;;;;;;;;;;18.90;54.12;100254.00;5378037;26;34241;-93
2022/05/09 05:00:25;;;;;;;;;;;;;;;18.93;54.36;100258.28;5380127;26;33934;-92
2022/05/09 05:02:54;;;;;;;;;;;;;;;18.91;54.95;100254.88;5379907;26;34728;-92
2022/05/09 05:05:23;;;;;;;;;;;;;;;18.96;54.96;100256.38;5379737;26;32690;-92
2022/05/09 05:07:52;;;;;;;;;;;;;;;18.94;54.69;100257.37;5384677;26;34250;-93
2022/05/09 05:10:27;;;;;;;;;;;;;;;19.06;54.23;100266.56;5378521;26;34270;-92
2022/05/09 05:12:58;;;;;;;;;;;;;;;19.07;54.31;100261.25;5380565;26;34861;-93
2022/05/09 05:15:26;;;;;;;;;;;;;;;19.14;54.23;100261.88;5380358;26;33109;-94
2022/05/09 05:17:55;;;;;;;;;;;;;;;19.21;54.08;100263.34;5357809;26;33266;-92
2022/05/09 05:20:26;;;;;;;;;;;;;;;19.18;54.45;100272.22;5386508;26;33992;-93
2022/05/09 05:22:55;;;;;;;;;;;;;;;18.93;54.43;100268.81;5383376;26;34035;-92
2022/05/09 05:25:25;;;;;;;;;;;;;;;19.27;53.83;100267.50;5380602;26;33644;-92
2022/05/09 05:27:53;;;;;;;;;;;;;;;19.21;53.69;100273.88;5378611;26;33635;-92
2022/05/09 05:30:23;;;;;;;;;;;;;;;19.49;53.15;100272.75;5378045;26;34267;-91
2022/05/09 05:32:54;;;;;;;;;;;;;;;19.45;53.74;100272.03;5381639;26;33017;-92
2022/05/09 05:35:24;;;;;;;;;;;;;;;19.46;54.09;100278.13;5387845;26;33444;-95
2022/05/09 05:37:53;;;;;;;;;;;;;;;19.50;54.30;100277.06;5380355;26;34236;-92
2022/05/09 05:40:21;;;;;;;;;;;;;;;19.67;54.08;100285.16;5382354;26;33808;-92
2022/05/09 05:42:52;;;;;;;;;;;;;;;19.50;55.31;100283.22;5377696;26;33789;-91
2022/05/09 05:45:21;;;;;;;;;;;;;;;19.64;55.25;100287.91;5378322;26;33834;-93
2022/05/09 05:47:51;;;;;;;;;;;;;;;19.77;54.97;100289.16;5385608;26;34033;-92
2022/05/09 05:50:21;;;;;;;;;;;;;;;19.67;55.19;100286.91;5377733;26;33411;-92
2022/05/09 05:52:49;;;;;;;;;;;;;;;19.78;55.19;100296.12;5380523;26;34211;-92
2022/05/09 05:55:19;;;;;;;;;;;;;;;20.02;54.76;100293.38;5377928;26;34080;-92
2022/05/09 05:57:48;;;;;;;;;;;;;;;19.93;54.78;100286.72;5380927;26;34234;-92
2022/05/09 06:00:19;;;;;;;;;;;;;;;19.81;54.51;100301.28;5387202;26;34292;-93
2022/05/09 06:02:47;;;;;;;;;;;;;;;19.89;54.21;100298.31;5378213;26;33449;-93
2022/05/09 06:05:18;;;;;;;;;;;;;;;20.05;53.80;100301.13;5378578;26;33819;-93
2022/05/09 06:07:47;;;;;;;;;;;;;;;20.16;53.84;100303.31;5379842;26;33892;-92
2022/05/09 06:10:16;;;;;;;;;;;;;;;20.05;54.02;100301.13;5378746;26;33641;-92
2022/05/09 06:12:45;;;;;;;;;;;;;;;20.36;53.23;100305.94;5366856;26;33280;-92
2022/05/09 06:15:28;;;;;;;;;;;;;;;20.55;52.86;100308.66;5382119;26;32927;-92
2022/05/09 06:17:59;;;;;;;;;;;;;;;20.51;53.15;100311.47;5380515;26;34274;-92
2022/05/09 06:20:30;;;;;;;;;;;;;;;20.48;53.27;100314.25;5380240;26;34100;-92
2022/05/09 06:22:59;;;;;;;;;;;;;;;20.49;52.00;100313.31;5381535;26;33332;-91
2022/05/09 06:25:28;;;;;;;;;;;;;;;20.56;50.87;100309.50;5390848;26;33206;-94
2022/05/09 06:27:58;;;;;;;;;;;;;;;20.71;50.84;100316.75;5388586;26;33841;-92
2022/05/09 06:30:27;;;;;;;;;;;;;;;20.82;50.71;100314.47;5381742;26;34236;-92
2022/05/09 06:32:56;;;;;;;;;;;;;;;20.89;50.19;100313.25;5380857;26;34363;-91
2022/05/09 06:35:25;;;;;;;;;;;;;;;20.80;50.24;100313.69;5382801;26;33587;-92
2022/05/09 06:37:57;;;;;;;;;;;;;;;20.87;51.03;100316.88;5362644;26;33558;-94
2022/05/09 06:40:26;;;;;;;;;;;;;;;20.94;50.73;100317.47;5388411;26;34074;-94
2022/05/09 06:42:55;;;;;;;;;;;;;;;20.97;51.25;100325.22;5381246;26;34046;-92
2022/05/09 06:45:27;;;;;;;;;;;;;;;20.96;50.69;100312.97;5381663;26;33591;-94
2022/05/09 06:47:56;;;;;;;;;;;;;;;21.06;49.79;100330.94;5381368;26;34228;-91
2022/05/09 06:50:26;;;;;;;;;;;;;;;21.17;49.25;100326.97;5381665;26;34396;-92
2022/05/09 06:52:59;;;;;;;;;;;;;;;21.41;47.95;100325.81;5388335;26;33969;-94
2022/05/09 06:55:44;;;;;;;;;;;;;;;21.27;48.51;100333.50;5388142;26;34805;-92
2022/05/09 06:58:13;;;;;;;;;;;;;;;21.63;47.98;100336.19;5381550;26;33818;-93
2022/05/09 07:00:45;;;;;;;;;;;;;;;21.65;48.16;100336.09;5381101;26;34416;-93
2022/05/09 07:03:14;;;;;;;;;;;;;;;21.20;49.90;100334.72;5382040;26;34184;-91
2022/05/09 07:05:45;;;;;;;;;;;;;;;21.21;49.91;100333.78;5381489;26;33572;-92
2022/05/09 07:08:15;;;;;;;;;;;;;;;20.78;51.35;100339.28;5387954;26;32804;-92
2022/05/09 07:10:44;;;;;;;;;;;;;;;20.77;51.00;100344.59;5380967;26;34615;-92
2022/05/09 07:13:24;;;;;;;;;;;;;;;20.44;52.39;100347.75;5381971;26;34297;-90
2022/05/09 07:15:57;;;;;;;;;;;;;;;20.63;52.58;100346.09;5381673;26;32971;-93
2022/05/09 07:18:27;;;;;;;;;;;;;;;20.72;52.47;100350.09;5381671;26;34172;-91
2022/05/09 07:20:56;;;;;;;;;;;;;;;20.25;53.66;100355.63;5381865;26;34204;-92
2022/05/09 07:23:26;;;;;;;;;;;;;;;20.20;53.40;100354.97;5387910;26;34931;-92
2022/05/09 07:25:56;;;;;;;;;;;;;;;20.29;53.55;100354.56;5381237;26;33433;-92
2022/05/09 07:28:27;;;;;;;;;;;;;;;20.36;52.65;100353.38;5381744;26;34603;-92
2022/05/09 07:30:57;;;;;;;;;;;;;;;20.58;52.65;100352.47;5381476;26;33807;-92
2022/05/09 07:33:27;;;;;;;;;;;;;;;20.73;52.71;100357.09;5381622;26;34543;-95
2022/05/09 07:35:56;;;;;;;;;;;;;;;20.68;53.43;100359.03;5387511;26;33858;-93
2022/05/09 07:38:25;;;;;;;;;;;;;;;20.85;53.39;100353.91;5359803;26;32418;-95
2022/05/09 07:40:54;;;;;;;;;;;;;;;20.90;53.94;100353.69;5381402;26;33092;-92
2022/05/09 07:43:24;;;;;;;;;;;;;;;21.02;53.96;100354.88;5381484;26;34601;-93
2022/05/09 07:45:54;;;;;;;;;;;;;;;21.28;52.70;100356.31;5380898;26;34010;-92
2022/05/09 07:48:23;;;;;;;;;;;;;;;21.19;52.09;100357.62;5381018;26;33611;-93
2022/05/09 07:50:51;;;;;;;;;;;;;;;21.28;51.75;100353.69;5388089;26;34083;-92
2022/05/09 07:53:20;;;;;;;;;;;;;;;21.35;50.57;100357.75;5381184;26;34307;-92
2022/05/09 07:55:50;;;;;;;;;;;;;;;21.35;50.92;100364.81;5381285;26;33716;-91
2022/05/09 07:58:19;;;;;;;;;;;;;;;21.19;51.78;100360.25;5381701;26;35191;-91
2022/05/09 08:00:48;;;;;;;;;;;;;;;21.43;51.42;100367.97;5380217;26;34362;-96
2022/05/09 08:03:18;;;;;;;;;;;;;;;21.46;50.54;100368.69;5387877;26;34436;-92
2022/05/09 08:05:48;;;;;;;;;;;;;;;21.69;49.44;100361.44;5382502;26;32848;-92
2022/05/09 08:08:17;;;;;;;;;;;;;;;21.95;47.32;100368.09;5381175;26;34328;-92
2022/05/09 08:10:46;;;;;;;;;;;;;;;22.13;47.26;100372.47;5382125;26;33868;-93
2022/05/09 08:13:17;;;;;;;;;;;;;;;22.24;45.81;100371.09;5382648;26;34332;-93
2022/05/09 08:15:46;;;;;;;;;;;;;;;21.98;46.29;100367.09;5388468;26;33950;-92
2022/05/09 08:18:14;;;;;;;;;;;;;;;21.89;45.92;100365.75;5382009;26;34320;-92
2022/05/09 08:20:45;;;;;;;;;;;;;;;21.81;47.26;100365.28;5383120;26;34345;-93
2022/05/09 08:23:16;;;;;;;;;;;;;;;21.98;46.96;100365.28;5384093;26;34291;-92
2022/05/09 08:25:45;;;;;;;;;;;;;;;22.20;46.95;100369.50;5382241;26;33364;-93
2022/05/09 08:28:16;;;;;;;;;;;;;;;22.42;45.29;100359.56;5382859;26;33654;-92
2022/05/09 08:30:49;;;;;;;;;;;;;;;22.36;45.06;100358.09;5385157;26;36001;-92
2022/05/09 08:33:22;;;;;;;;;;;;;;;22.42;46.01;100356.94;5379665;26;33385;-92
2022/05/09 08:35:55;;;;;;;;;;;;;;;22.74;45.19;100359.69;5380857;26;33437;-90
2022/05/09 08:38:26;;;;;;;;;;;;;;;22.81;45.62;100355.78;5380896;26;34134;-93
2022/05/09 08:41:00;;;;;;;;;;;;;;;22.87;44.10;100360.75;5379997;26;33709;-93
2022/05/09 08:43:40;;;;;;;;;;;;;;;22.86;44.53;100359.03;5384523;26;34191;-91
2022/05/09 08:46:11;;;;;;;;;;;;;;;23.05;44.14;100352.78;5385037;26;32963;-91
2022/05/09 08:48:53;;;;;;;;;;;;;;;23.36;42.79;100351.94;5378200;26;34367;-92
2022/05/09 08:51:29;;;;;;;;;;;;;;;23.31;43.27;100354.84;5378047;26;33596;-91
2022/05/09 08:53:58;;;;;;;;;;;;;;;23.50;43.11;100353.81;5381047;26;33358;-91
2022/05/09 08:56:28;;;;;;;;;;;;;;;23.63;41.94;100358.34;5379008;26;32590;-92
2022/05/09 08:59:00;;;;;;;;;;;;;;;23.90;40.75;100356.88;5379771;26;33949;-92
2022/05/09 09:01:29;;;;;;;;;;;;;;;24.06;37.24;100355.87;5386489;26;34150;-92
2022/05/09 09:03:59;;;;;;;;;;;;;;;23.81;38.99;100360.91;5382962;26;33649;-92
2022/05/09 09:06:37;;;;;;;;;;;;;;;23.80;40.11;100362.72;5380466;26;33203;-91
2022/05/09 09:09:08;;;;;;;;;;;;;;;24.00;39.07;100366.00;5384499;26;34034;-93
2022/05/09 09:11:38;;;;;;;;;;;;;;;23.89;38.24;100363.97;5384166;26;34034;-91
2022/05/09 09:14:10;;;;;;;;;;;;;;;23.89;38.53;100368.41;5386363;26;33870;-91
2022/05/09 09:16:44;;;;;;;;;;;;;;;23.58;38.89;100363.06;5385535;26;32500;-92
2022/05/09 09:19:27;;;;;;;;;;;;;;;23.88;37.86;100359.63;5380686;26;34038;-92
2022/05/09 09:21:58;;;;;;;;;;;;;;;23.98;37.21;100366.09;5382454;26;35015;-93
2022/05/09 09:24:31;;;;;;;;;;;;;;;24.11;36.39;100363.56;5380603;26;34544;-94
2022/05/09 09:27:01;;;;;;;;;;;;;;;23.95;35.75;100365.41;5379971;26;33090;-92
2022/05/09 09:29:32;;;;;;;;;;;;;;;23.61;36.98;100365.53;5387026;26;34035;-91
2022/05/09 09:32:02;;;;;;;;;;;;;;;23.56;36.45;100359.63;5386132;26;34660;-92
2022/05/09 09:34:33;;;;;;;;;;;;;;;23.83;36.72;100367.81;5381815;26;34109;-92
2022/05/09 09:37:03;;;;;;;;;;;;;;;23.74;37.47;100365.69;5380490;26;34159;-93
2022/05/09 09:39:34;;;;;;;;;;;;;;;23.69;37.21;100359.78;5379963;26;33865;-91
2022/05/09 09:42:03;;;;;;;;;;;;;;;23.69;37.29;100366.88;5379100;26;34297;-91
2022/05/09 09:44:34;;;;;;;;;;;;;;;23.93;38.08;100360.19;5386843;26;34818;-90
2022/05/09 09:47:10;;;;;;;;;;;;;;;23.94;36.84;100361.03;5379588;26;33592;-92
2022/05/09 09:50:14;;;;;;;;;;;;;;;24.05;36.39;100363.94;5380734;26;33953;-93
2022/05/09 09:52:45;;;;;;;;;;;;;;;24.02;36.96;100359.66;5379276;26;34568;-91
2022/05/09 09:55:19;;;;;;;;;;;;;;;24.23;37.18;100362.84;5379359;26;33635;-90
2022/05/09 09:57:48;;;;;;;;;;;;;;;24.45;36.83;100357.12;5381335;26;33362;-91
2022/05/09 10:00:19;;;;;;;;;;;;;;;24.60;37.22;100355.37;5379548;26;33587;-91
2022/05/09 10:02:48;;;;;;;;;;;;;;;24.63;35.12;100356.97;5385746;26;33953;-92
2022/05/09 10:05:18;;;;;;;;;;;;;;;25.04;35.48;100349.09;5380346;26;33686;-90
2022/05/09 10:07:47;;;;;;;;;;;;;;;24.97;34.87;100347.78;5384112;26;33553;-92
2022/05/09 10:10:19;;;;;;;;;;;;;;;25.18;34.77;100345.63;5359472;26;32059;-92
2022/05/09 10:12:48;;;;;;;;;;;;;;;24.80;33.80;100346.16;5387533;26;33472;-92
2022/05/09 10:15:24;;;;;;;;;;;;;;;24.39;35.16;100336.25;5386782;26;34171;-92
2022/05/09 10:17:53;;;;;;;;;;;;;;;25.03;33.63;100336.78;5359424;26;32438;-93
2022/05/09 10:20:44;;;;;;;;;;;;;;;25.22;34.61;100330.31;5378196;26;34351;-93
2022/05/09 10:26:06;;;;;;;;;;;;;;;25.07;32.46;100326.81;5376653;26;34957;-92
2022/05/09 10:28:36;;;;;;;;;;;;;;;25.49;32.14;100322.37;5376863;26;32867;-92
2022/05/09 10:31:10;;;;;;;;;;;;;;;25.36;31.67;100314.34;5378551;26;33887;-92
2022/05/09 10:33:40;;;;;;;;;;;;;;;25.66;32.63;100316.81;5385858;26;34717;-93
2022/05/09 10:36:09;;;;;;;;;;;;;;;25.67;32.02;100315.00;5379927;26;33787;-91
2022/05/09 10:38:38;;;;;;;;;;;;;;;25.44;31.58;100313.84;5379038;26;33231;-93
2022/05/09 10:41:10;;;;;;;;;;;;;;;25.31;32.31;100303.19;5378574;26;33687;-92
2022/05/09 10:43:39;;;;;;;;;;;;;;;25.06;32.97;100299.41;5379033;26;33885;-92
2022/05/09 10:46:11;;;;;;;;;;;;;;;24.88;33.38;100296.09;5384966;26;33932;-92
2022/05/09 10:48:41;;;;;;;;;;;;;;;24.97;33.41;100296.50;5366128;26;34190;-91
2022/05/09 10:51:11;;;;;;;;;;;;;;;25.23;33.25;100294.87;5378254;26;34108;-92
2022/05/09 10:53:53;;;;;;;;;;;;;;;25.76;32.79;100295.78;5358121;26;34191;-91
2022/05/09 10:56:23;;;;;;;;;;;;;;;26.04;33.02;100294.78;5378416;26;33839;-90
2022/05/09 10:58:54;;;;;;;;;;;;;;;25.99;32.50;100304.91;5378369;26;32884;-92
2022/05/09 11:01:25;;;;;;;;;;;;;;;25.46;33.39;100288.03;5383979;26;34859;-95
2022/05/09 11:03:54;;;;;;;;;;;;;;;26.18;31.89;100289.38;5378797;26;33779;-93
2022/05/09 11:06:31;;;;;;;;;;;;;;;25.98;31.87;100287.25;5356880;26;32973;-91
2022/05/09 11:09:07;;;;;;;;;;;;;;;25.98;32.42;100289.91;5378602;26;33355;-91
2022/05/09 11:11:36;;;;;;;;;;;;;;;26.16;31.73;100280.66;5377479;26;34651;-91
2022/05/09 11:14:08;;;;;;;;;;;;;;;26.29;31.77;100280.69;5378804;26;33598;-92
2022/05/09 11:16:41;;;;;;;;;;;;;;;26.42;31.67;100285.16;5384039;26;35374;-91
2022/05/09 11:19:19;;;;;;;;;;;;;;;25.96;31.83;100279.38;5377881;26;33955;-90
2022/05/09 11:21:49;;;;;;;;;;;;;;;26.60;31.38;100274.09;5384550;26;34163;-95
2022/05/09 11:24:22;;;;;;;;;;;;;;;27.02;30.86;100271.97;5358025;26;32502;-91
2022/05/09 11:26:54;;;;;;;;;;;;;;;27.22;30.13;100259.88;5379189;26;33704;-91
2022/05/09 11:29:26;;;;;;;;;;;;;;;27.58;29.76;100258.09;5378668;26;33315;-94
2022/05/09 11:32:03;;;;;;;;;;;;;;;27.98;29.01;100259.56;5385664;26;33712;-90
2022/05/09 11:34:36;;;;;;;;;;;;;;;27.80;28.56;100253.81;5382838;26;33351;-91
2022/05/09 11:37:07;;;;;;;;;;;;;;;28.00;28.28;100246.97;5379664;26;34619;-92
2022/05/09 11:39:40;;;;;;;;;;;;;;;28.28;27.07;100240.34;5379365;26;33446;-92
2022/05/09 11:44:55;;;;;;;;;;;;;;;28.05;28.16;100244.81;5379220;26;34787;-91
2022/05/09 11:47:29;;;;;;;;;;;;;;;28.57;27.01;100243.41;5386054;26;33404;-91
2022/05/09 11:50:03;;;;;;;;;;;;;;;28.84;26.80;100251.03;5364813;26;31702;-92
2022/05/09 11:52:34;;;;;;;;;;;;;;;28.49;27.47;100252.03;5382276;26;34000;-92
2022/05/09 11:55:05;;;;;;;;;;;;;;;27.17;29.34;100264.66;5379952;26;33702;-93
2022/05/09 11:57:34;;;;;;;;;;;;;;;25.58;38.81;100270.44;5358571;26;32991;-90
2022/05/09 12:00:05;;;;;;;;;;;;;;;21.24;48.51;100275.63;5379348;26;33332;-87
2022/05/09 12:02:49;;;;;;;;;;;;;;;19.31;54.78;100280.47;5385209;26;33610;-86
2022/05/09 12:05:41;;;;;;;;;;;;;;;19.34;54.25;100279.47;5363775;26;33606;-86
2022/05/09 12:08:14;;;;;;;;;;;;;;;19.43;53.68;100268.59;5379303;26;34357;-86
2022/05/09 12:10:43;;;;;;;;;;;;;;;19.16;52.95;100266.16;5377863;26;33377;-86
2022/05/09 12:13:12;;;;;;;;;;;;;;;18.90;58.83;100259.28;5378532;26;34441;-85
2022/05/09 12:15:47;;;;;;;;;;;;;;;19.12;58.13;100259.28;5378730;26;33782;-86
2022/05/09 12:18:21;;;;;;;;;;;;;;;18.69;57.03;100253.00;5378297;26;33571;-84
2022/05/09 12:21:02;;;;;;;;;;;;;;;19.02;52.50;100255.31;5385708;26;32738;-84
2022/05/09 12:24:06;;;;;;;;;;;;;;;18.43;59.55;100253.13;5379035;26;33454;-84
2022/05/09 12:26:35;;;;;;;;;;;;;;;18.78;60.70;100262.38;5308221;27;33561;-85
2022/05/09 12:29:08;;;;;;;;;;;;;;;19.07;59.07;100252.50;5308865;27;34179;-86
2022/05/09 12:31:40;;;;;;;;;;;;;;;19.50;58.60;100259.53;5307283;27;33841;-84
2022/05/09 12:34:13;;;;;;;;;;;;;;;20.12;60.38;100262.22;5308818;27;33938;-84
2022/05/09 12:36:41;;;;;;;;;;;;;;;20.30;59.70;100269.34;5309117;27;34316;-84
2022/05/09 12:39:12;;;;;;;;;;;;;;;20.51;60.99;100269.28;5314260;26;34342;-84
2022/05/09 12:41:42;;;;;;;;;;;;;;;20.65;60.25;100280.09;5308594;27;33463;-84
2022/05/09 12:44:11;;;;;;;;;;;;;;;20.83;57.06;100291.59;5308773;27;34554;-84
2022/05/09 12:46:40;;;;;;;;;;;;;;;20.57;58.46;100284.87;5309044;27;34101;-84
2022/05/09 12:49:09;;;;;;;;;;;;;;;20.38;57.83;100290.06;5308479;27;34435;-84
2022/05/09 12:51:42;;;;;;;;;;;;;;;20.64;59.32;100286.31;5315007;27;32819;-85
2022/05/09 12:54:12;;;;;;;;;;;;;;;20.63;60.29;100284.56;5308125;27;34127;-84
2022/05/09 12:56:46;;;;;;;;;;;;;;;20.71;59.82;100284.22;5297766;26;33019;-85
2022/05/09 12:59:16;;;;;;;;;;;;;;;20.89;58.04;100286.88;5378702;26;35049;-84
2022/05/09 13:01:51;;;;;;;;;;;;;;;20.88;59.29;100290.44;5378084;26;33139;-85
2022/05/09 13:04:45;;;;;;;;;;;;;;;20.97;60.67;100291.81;5378839;26;33557;-85
2022/05/09 13:07:15;;;;;;;;;;;;;;;21.18;60.67;100297.84;5385496;26;33449;-85